createdAt,value
2024-01-11T00:02:10.900Z,51.29
2024-01-11T00:04:39.094Z,51.24
2024-01-11T00:07:07.341Z,50.83
2024-01-11T00:09:35.522Z,51.17
2024-01-11T00:12:04.184Z,50.96
2024-01-11T00:14:32.325Z,51.36
2024-01-11T00:17:02.017Z,50.85
2024-01-11T00:19:30.282Z,51.21
2024-01-11T00:21:58.357Z,51.05
2024-01-11T00:24:26.542Z,50.73
2024-01-11T00:26:54.726Z,51.39
2024-01-11T00:29:22.988Z,51.08
2024-01-11T00:31:51.106Z,51.06
2024-01-11T00:34:20.762Z,50.71
2024-01-11T00:36:48.934Z,51.23
2024-01-11T00:39:17.030Z,50.85
2024-01-11T00:41:45.253Z,51.02
2024-01-11T00:44:13.581Z,50.89
2024-01-11T00:46:42.120Z,51.02
2024-01-11T00:49:10.501Z,51.52
2024-01-11T00:51:40.503Z,50.81
2024-01-11T00:54:08.656Z,51.23
2024-01-11T00:56:36.956Z,51.22
2024-01-11T00:59:06.492Z,51.06
2024-01-11T01:01:34.628Z,51.31
2024-01-11T01:04:02.785Z,51.09
2024-01-11T01:06:31.112Z,51.00
2024-01-11T01:09:00.606Z,51.06
2024-01-11T01:11:28.962Z,51.47
2024-01-11T01:13:57.144Z,51.23
2024-01-11T01:16:25.438Z,51.13
2024-01-11T01:18:53.610Z,51.10
2024-01-11T01:21:21.774Z,50.94
2024-01-11T01:23:49.931Z,51.02
2024-01-11T01:26:19.556Z,51.23
2024-01-11T01:28:48.030Z,51.18
2024-01-11T01:31:16.415Z,51.00
2024-01-11T01:33:44.750Z,51.08
2024-01-11T01:36:13.052Z,51.12
2024-01-11T01:38:41.254Z,50.95
2024-01-11T01:41:09.609Z,50.70
2024-01-11T01:43:39.065Z,50.82
2024-01-11T01:46:07.453Z,50.94
2024-01-11T01:48:35.756Z,50.72
2024-01-11T01:51:04.112Z,50.82
2024-01-11T01:53:32.214Z,50.56
2024-01-11T01:56:00.488Z,50.84
2024-01-11T01:58:28.661Z,50.88
2024-01-11T02:00:58.582Z,51.30
2024-01-11T02:03:26.818Z,50.82
2024-01-11T02:05:55.028Z,51.47
2024-01-11T02:08:24.282Z,50.85
2024-01-11T02:10:52.628Z,51.02
2024-01-11T02:13:23.355Z,51.08
2024-01-11T02:15:51.599Z,50.88
2024-01-11T02:18:21.111Z,51.29
2024-01-11T02:20:49.413Z,50.89
2024-01-11T02:23:19.630Z,50.91
2024-01-11T02:25:49.269Z,50.92
2024-01-11T02:28:17.388Z,51.26
2024-01-11T02:30:45.705Z,51.46
2024-01-11T02:33:18.154Z,51.04
2024-01-11T02:35:48.124Z,51.06
2024-01-11T02:38:17.742Z,51.24
2024-01-11T02:40:45.955Z,51.10
2024-01-11T02:43:15.772Z,51.37
2024-01-11T02:45:43.884Z,51.02
2024-01-11T02:48:12.006Z,51.05
2024-01-11T02:50:40.217Z,51.08
2024-01-11T02:53:08.319Z,50.94
2024-01-11T02:55:36.473Z,51.10
2024-01-11T02:58:04.782Z,51.35
2024-01-11T03:00:34.322Z,50.99
2024-01-11T03:03:02.847Z,51.06
2024-01-11T03:05:31.057Z,50.88
2024-01-11T03:07:59.220Z,50.63
2024-01-11T03:10:27.370Z,50.82
2024-01-11T03:12:55.415Z,51.13
2024-01-11T03:15:23.626Z,50.89
2024-01-11T03:17:53.279Z,50.90
2024-01-11T03:20:25.758Z,50.96
2024-01-11T03:22:54.054Z,50.54
2024-01-11T03:25:22.125Z,50.83
2024-01-11T03:27:50.178Z,50.54
2024-01-11T03:30:18.596Z,50.63
2024-01-11T03:32:46.875Z,50.88
2024-01-11T03:35:16.529Z,50.96
2024-01-11T03:37:44.705Z,50.57
2024-01-11T03:40:13.292Z,50.93
2024-01-11T03:42:41.386Z,50.94
2024-01-11T03:45:10.142Z,50.80
2024-01-11T03:47:38.539Z,50.60
2024-01-11T03:50:07.654Z,50.87
2024-01-11T03:52:37.087Z,50.77
2024-01-11T03:55:05.600Z,50.65
2024-01-11T03:57:33.717Z,50.73
2024-01-11T04:00:01.767Z,50.79
2024-01-11T04:02:32.739Z,50.44
2024-01-11T04:05:00.943Z,50.60
2024-01-11T04:07:29.047Z,50.50
2024-01-11T04:09:58.517Z,50.21
2024-01-11T04:12:26.633Z,50.65
2024-01-11T04:14:54.715Z,50.47
2024-01-11T04:17:22.934Z,50.58
2024-01-11T04:19:51.112Z,50.52
2024-01-11T04:22:19.216Z,50.67
2024-01-11T04:24:47.344Z,50.58
2024-01-11T04:27:16.822Z,50.65
2024-01-11T04:29:45.002Z,50.34
2024-01-11T04:32:13.159Z,50.75
2024-01-11T04:34:41.475Z,50.56
2024-01-11T04:37:09.602Z,50.57
2024-01-11T04:39:37.691Z,50.67
2024-01-11T04:42:06.004Z,50.71
2024-01-11T04:44:35.471Z,50.56
2024-01-11T04:47:03.606Z,50.42
2024-01-11T04:49:31.716Z,50.56
2024-01-11T04:51:59.857Z,50.71
2024-01-11T04:54:27.955Z,50.63
2024-01-11T04:56:56.003Z,50.60
2024-01-11T04:59:24.144Z,50.77
2024-01-11T05:01:53.608Z,50.57
2024-01-11T05:04:21.713Z,50.71
2024-01-11T05:06:49.795Z,50.71
2024-01-11T05:09:17.999Z,50.61
2024-01-11T05:11:47.393Z,50.89
2024-01-11T05:14:15.531Z,50.84
2024-01-11T05:16:43.669Z,50.65
2024-01-11T05:19:13.199Z,50.89
2024-01-11T05:21:41.455Z,50.66
2024-01-11T05:24:11.917Z,50.88
2024-01-11T05:26:40.475Z,50.97
2024-01-11T05:29:08.578Z,50.89
2024-01-11T05:31:36.896Z,50.91
2024-01-11T05:34:05.464Z,51.02
2024-01-11T05:36:35.080Z,50.67
2024-01-11T05:39:03.215Z,50.96
2024-01-11T05:41:31.337Z,50.98
2024-01-11T05:43:59.449Z,50.71
2024-01-11T05:46:27.610Z,50.84
2024-01-11T05:48:55.782Z,50.84
2024-01-11T05:51:23.913Z,50.79
2024-01-11T05:53:53.390Z,50.52
2024-01-11T05:56:21.659Z,50.91
2024-01-11T05:58:49.785Z,50.70
2024-01-11T06:01:17.993Z,50.60
2024-01-11T06:03:46.164Z,50.42
2024-01-11T06:06:14.396Z,50.60
2024-01-11T06:08:44.205Z,50.73
2024-01-11T06:11:13.768Z,50.49
2024-01-11T06:13:42.796Z,50.97
2024-01-11T06:16:13.395Z,50.64
2024-01-11T06:18:42.108Z,50.44
2024-01-11T06:21:10.214Z,50.37
2024-01-11T06:23:38.357Z,50.26
2024-01-11T06:26:06.565Z,50.41
2024-01-11T06:28:36.749Z,50.37
2024-01-11T06:31:05.455Z,50.69
2024-01-11T06:33:34.152Z,50.34
2024-01-11T06:36:02.372Z,50.08
2024-01-11T06:38:30.772Z,50.42
2024-01-11T06:40:59.386Z,50.44
2024-01-11T06:43:27.434Z,50.45
2024-01-11T06:45:56.920Z,50.03
2024-01-11T06:48:25.649Z,50.14
2024-01-11T06:50:53.884Z,50.14
2024-01-11T06:53:24.104Z,49.94
2024-01-11T06:55:53.683Z,49.93
2024-01-11T06:58:23.272Z,50.00
2024-01-11T07:00:51.754Z,49.81
2024-01-11T07:03:21.290Z,50.30
2024-01-11T07:05:49.611Z,49.99
2024-01-11T07:08:17.822Z,50.38
2024-01-11T07:10:46.617Z,49.93
2024-01-11T07:13:17.911Z,50.10
2024-01-11T07:15:46.102Z,50.12
2024-01-11T07:18:14.291Z,49.96
2024-01-11T07:20:43.883Z,50.04
2024-01-11T07:23:12.061Z,49.97
2024-01-11T07:25:40.688Z,50.24
2024-01-11T07:28:08.801Z,49.97
2024-01-11T07:30:36.905Z,50.23
2024-01-11T07:33:05.919Z,50.32
2024-01-11T07:35:34.206Z,50.26
2024-01-11T07:38:03.941Z,50.14
2024-01-11T07:40:34.531Z,49.94
2024-01-11T07:43:05.148Z,49.98
2024-01-11T07:45:33.252Z,50.24
2024-01-11T07:48:04.138Z,50.17
2024-01-11T07:50:32.613Z,50.18
2024-01-11T07:53:00.777Z,49.97
2024-01-11T07:55:30.390Z,50.00
2024-01-11T07:57:58.594Z,49.98
2024-01-11T08:00:26.938Z,49.92
2024-01-11T08:02:55.726Z,49.93
2024-01-11T08:05:24.029Z,49.70
2024-01-11T08:07:52.487Z,49.61
2024-01-11T08:10:22.999Z,49.75
2024-01-11T08:12:53.581Z,49.69
2024-01-11T08:15:21.715Z,49.64
2024-01-11T08:17:49.959Z,49.46
2024-01-11T08:20:18.505Z,49.61
2024-01-11T08:22:47.575Z,49.45
2024-01-11T08:25:16.108Z,49.22
2024-01-11T08:27:44.306Z,49.43
2024-01-11T08:30:15.181Z,49.60
2024-01-11T08:32:43.838Z,49.42
2024-01-11T08:37:42.185Z,49.72
2024-01-11T08:40:12.393Z,49.22
2024-01-11T08:42:43.904Z,49.70
2024-01-11T08:45:19.553Z,49.80
2024-01-11T08:47:48.066Z,49.79
2024-01-11T08:50:16.824Z,49.49
2024-01-11T08:52:45.657Z,49.58
2024-01-11T08:55:14.184Z,49.48
2024-01-11T08:57:42.333Z,49.31
2024-01-11T09:00:11.955Z,49.14
2024-01-11T09:02:41.586Z,49.58
2024-01-11T09:05:10.375Z,49.30
2024-01-11T09:07:39.658Z,49.33
2024-01-11T09:10:10.354Z,49.24
2024-01-11T09:12:38.689Z,49.16
2024-01-11T09:15:07.540Z,49.44
2024-01-11T09:17:35.738Z,49.22
2024-01-11T09:20:06.043Z,49.52
2024-01-11T09:22:34.916Z,49.40
2024-01-11T09:25:03.000Z,49.49
2024-01-11T09:27:31.942Z,49.57
2024-01-11T09:30:00.075Z,49.68
2024-01-11T09:32:28.445Z,49.89
2024-01-11T09:34:56.628Z,49.58
2024-01-11T09:37:28.676Z,49.59
2024-01-11T09:39:57.060Z,49.44
2024-01-11T09:42:25.939Z,49.48
2024-01-11T09:44:54.276Z,49.66
2024-01-11T09:47:22.412Z,49.47
2024-01-11T09:49:51.961Z,49.61
2024-01-11T09:52:21.672Z,49.39
2024-01-11T09:54:51.367Z,49.43
2024-01-11T09:57:21.788Z,49.45
2024-01-11T09:59:52.581Z,49.53
2024-01-11T10:02:21.257Z,49.42
2024-01-11T10:04:49.772Z,49.46
2024-01-11T10:07:20.032Z,49.57
2024-01-11T10:09:48.718Z,49.21
2024-01-11T10:12:22.218Z,49.50
2024-01-11T10:14:50.472Z,49.62
2024-01-11T10:17:21.700Z,49.51
2024-01-11T10:19:52.625Z,49.48
2024-01-11T10:22:23.199Z,49.26
2024-01-11T10:24:53.363Z,49.48
2024-01-11T10:27:24.564Z,49.48
2024-01-11T10:29:52.952Z,49.37
2024-01-11T10:32:21.087Z,49.33
2024-01-11T10:34:49.321Z,49.26
2024-01-11T10:37:18.120Z,49.38
2024-01-11T10:39:46.462Z,49.32
2024-01-11T10:42:14.570Z,49.14
2024-01-11T10:44:44.156Z,49.05
2024-01-11T10:47:12.488Z,48.67
2024-01-11T10:49:42.177Z,48.78
2024-01-11T10:52:10.483Z,48.95
2024-01-11T10:54:38.572Z,48.87
2024-01-11T10:57:08.903Z,48.76
2024-01-11T10:59:37.169Z,48.59
2024-01-11T11:02:11.910Z,48.69
2024-01-11T11:04:41.250Z,48.54
2024-01-11T11:07:09.806Z,48.12
2024-01-11T11:09:38.817Z,48.20
2024-01-11T11:12:18.094Z,48.39
2024-01-11T11:14:46.523Z,48.30
2024-01-11T11:21:38.179Z,48.18
2024-01-11T11:23:51.706Z,48.42
2024-01-11T11:26:37.314Z,48.38
2024-01-11T11:29:41.684Z,48.46
2024-01-11T11:32:11.618Z,48.28
2024-01-11T11:34:49.547Z,48.37
2024-01-11T11:37:25.127Z,48.22
2024-01-11T11:39:53.307Z,48.14
2024-01-11T11:42:21.419Z,47.97
2024-01-11T11:44:51.555Z,48.19
2024-01-11T11:47:22.515Z,48.07
2024-01-11T11:50:08.860Z,48.31
2024-01-11T11:52:38.063Z,48.36
2024-01-11T11:55:07.683Z,48.22
2024-01-11T11:57:36.085Z,48.35
2024-01-11T12:00:07.454Z,48.24
2024-01-11T12:02:41.970Z,48.49
2024-01-11T12:05:11.827Z,48.20
2024-01-11T12:07:40.028Z,48.46
2024-01-11T12:10:08.966Z,48.54
2024-01-11T12:12:37.377Z,48.32
2024-01-11T12:15:07.184Z,48.33
2024-01-11T12:31:48.501Z,48.36
2024-01-11T12:34:32.257Z,48.41
2024-01-11T12:37:06.645Z,48.63
2024-01-11T12:39:35.113Z,48.46
2024-01-11T12:42:05.240Z,48.60
2024-01-11T12:44:36.670Z,48.79
2024-01-11T12:51:45.716Z,48.51
2024-01-11T12:55:19.374Z,48.36
2024-01-11T13:09:38.364Z,48.55
2024-01-11T13:16:26.348Z,48.46
2024-01-11T13:23:40.554Z,48.36
2024-01-11T13:26:12.422Z,48.10
2024-01-11T13:28:52.658Z,47.76
2024-01-11T13:31:26.494Z,47.30
2024-01-11T13:34:04.819Z,47.12
2024-01-11T13:36:34.177Z,47.08
2024-01-11T13:39:25.009Z,47.19
2024-01-11T13:42:08.497Z,46.73
2024-01-11T13:44:44.717Z,46.81
2024-01-11T13:48:03.428Z,46.74
2024-01-11T13:51:09.713Z,46.43
2024-01-11T13:53:40.202Z,46.20
2024-01-11T13:59:55.447Z,46.52
2024-01-11T14:04:09.030Z,46.93
2024-01-11T14:06:38.999Z,46.77
2024-01-11T14:09:10.619Z,47.15
2024-01-11T14:11:38.897Z,47.06
2024-01-11T14:14:07.816Z,47.26
2024-01-11T14:16:36.419Z,47.18
2024-01-11T14:19:04.770Z,47.08
2024-01-11T14:21:33.022Z,47.24
2024-01-11T14:24:02.808Z,47.09
2024-01-11T14:26:31.128Z,46.94
2024-01-11T14:28:59.349Z,46.92
2024-01-11T14:31:27.514Z,47.06
2024-01-11T14:33:55.938Z,46.99
2024-01-11T14:36:24.205Z,47.30
2024-01-11T14:38:52.904Z,47.28
2024-01-11T14:41:22.494Z,47.29
2024-01-11T14:43:50.674Z,47.12
2024-01-11T14:46:18.814Z,47.25
2024-01-11T14:48:47.181Z,47.22
2024-01-11T14:51:15.562Z,47.34
2024-01-11T14:53:44.858Z,47.53
2024-01-11T14:56:13.802Z,47.45
2024-01-11T14:58:43.539Z,47.51
2024-01-11T15:01:12.111Z,47.37
2024-01-11T15:03:43.088Z,47.46
2024-01-11T15:06:12.161Z,47.24
2024-01-11T15:08:40.869Z,47.42
2024-01-11T15:24:56.219Z,47.60
2024-01-11T15:27:31.068Z,47.73
2024-01-11T15:30:00.794Z,47.57
2024-01-11T15:32:29.386Z,47.68
2024-01-11T15:35:00.323Z,47.89
2024-01-11T15:40:14.627Z,47.71
2024-01-11T15:42:44.641Z,47.84
2024-01-11T15:45:17.334Z,48.06
2024-01-11T15:47:47.814Z,47.94
2024-01-11T15:50:16.174Z,47.98
2024-01-11T15:52:46.479Z,48.20
2024-01-11T15:55:15.787Z,48.13
2024-01-11T15:57:44.298Z,48.07
2024-01-11T16:03:38.565Z,48.54
2024-01-11T16:06:07.471Z,48.42
2024-01-11T16:08:36.009Z,48.37
2024-01-11T16:11:04.178Z,48.78
2024-01-11T16:13:32.313Z,49.01
2024-01-11T16:16:02.196Z,48.65
2024-01-11T16:18:30.544Z,48.95
2024-01-11T16:20:58.833Z,48.86
2024-01-11T16:23:26.971Z,49.12
2024-01-11T16:25:55.240Z,49.11
2024-01-11T16:28:23.392Z,49.18
2024-01-11T16:30:51.982Z,48.96
2024-01-11T16:33:21.792Z,49.28
2024-01-11T16:35:57.809Z,49.11
2024-01-11T16:38:27.231Z,49.21
2024-01-11T16:40:56.197Z,49.57
2024-01-11T16:43:24.421Z,49.65
2024-01-11T16:45:52.788Z,49.36
2024-01-11T16:48:22.401Z,49.61
2024-01-11T16:50:50.881Z,49.55
2024-01-11T16:53:19.211Z,49.54
2024-01-11T16:55:47.384Z,49.48
2024-01-11T16:58:15.501Z,49.70
2024-01-11T17:00:45.694Z,49.98
2024-01-11T17:03:14.050Z,49.71
2024-01-11T17:05:44.007Z,49.94
2024-01-11T17:08:12.234Z,49.96
2024-01-11T17:10:40.777Z,49.80
2024-01-11T17:13:08.891Z,50.15
2024-01-11T17:15:37.607Z,49.80
2024-01-11T17:18:06.530Z,50.23
2024-01-11T17:20:34.789Z,50.16
2024-01-11T17:23:04.773Z,50.29
2024-01-11T17:25:33.290Z,50.15
2024-01-11T17:28:01.378Z,50.42
2024-01-11T17:30:29.585Z,50.39
2024-01-11T17:32:58.421Z,50.14
2024-01-11T17:35:26.602Z,50.41
2024-01-11T17:37:57.450Z,50.22
2024-01-11T17:40:35.865Z,50.13
2024-01-11T17:43:05.554Z,50.52
2024-01-11T17:45:33.792Z,50.44
2024-01-11T17:48:02.184Z,50.68
2024-01-11T17:50:35.755Z,50.36
2024-01-11T17:53:06.765Z,50.50
2024-01-11T17:55:36.544Z,50.62
2024-01-11T17:58:05.592Z,50.65
2024-01-11T18:00:34.964Z,50.61
2024-01-11T18:03:04.004Z,50.71
2024-01-11T18:05:32.505Z,50.94
2024-01-11T18:08:00.807Z,51.03
2024-01-11T18:10:28.871Z,50.62
2024-01-11T18:12:59.792Z,51.09
2024-01-11T18:15:31.006Z,51.11
2024-01-11T18:17:59.560Z,51.20
2024-01-11T18:20:28.061Z,50.88
2024-01-11T18:22:56.618Z,51.29
2024-01-11T18:25:27.859Z,51.11
2024-01-11T18:27:56.544Z,51.10
2024-01-11T18:30:26.709Z,51.36
2024-01-11T18:32:55.487Z,51.10
2024-01-11T18:35:23.948Z,51.37
2024-01-11T18:37:54.928Z,51.68
2024-01-11T18:40:26.032Z,51.81
2024-01-11T18:42:55.893Z,51.52
2024-01-11T18:45:27.671Z,51.66
2024-01-11T18:47:56.308Z,51.54
2024-01-11T18:50:29.117Z,51.81
2024-01-11T18:52:58.045Z,51.97
2024-01-11T18:55:28.452Z,51.81
2024-01-11T18:57:56.855Z,51.75
2024-01-11T19:00:27.924Z,51.60
2024-01-11T19:02:57.951Z,51.66
2024-01-11T19:05:26.623Z,51.70
2024-01-11T19:07:54.987Z,51.84
2024-01-11T19:10:26.450Z,51.95
2024-01-11T19:12:56.292Z,52.37
2024-01-11T19:15:24.522Z,52.36
2024-01-11T19:17:56.056Z,52.04
2024-01-11T19:20:25.880Z,52.25
2024-01-11T19:22:54.124Z,52.09
2024-01-11T19:25:25.828Z,52.22
2024-01-11T19:27:58.736Z,52.45
2024-01-11T19:30:29.739Z,52.35
2024-01-11T19:33:01.322Z,52.21
2024-01-11T19:35:29.596Z,52.67
2024-01-11T19:38:00.614Z,52.22
2024-01-11T19:40:28.796Z,52.73
2024-01-11T19:42:57.047Z,52.77
2024-01-11T19:45:25.229Z,52.85
2024-01-11T19:47:53.548Z,52.56
2024-01-11T19:50:24.391Z,52.72
2024-01-11T19:52:54.186Z,52.49
2024-01-11T19:55:22.329Z,52.51
2024-01-11T19:57:50.398Z,52.75
2024-01-11T20:00:18.788Z,52.63
2024-01-11T20:02:47.312Z,52.59
2024-01-11T20:05:15.852Z,52.46
2024-01-11T20:07:46.735Z,52.61
2024-01-11T20:10:15.369Z,52.78
2024-01-11T20:12:43.760Z,52.78
2024-01-11T20:15:14.532Z,52.78
2024-01-11T20:17:45.164Z,52.80
2024-01-11T20:20:13.652Z,52.83
2024-01-11T20:22:43.756Z,52.53
2024-01-11T20:25:17.602Z,52.63
2024-01-11T20:27:54.530Z,52.82
2024-01-11T20:30:23.135Z,53.05
2024-01-11T20:32:51.634Z,52.93
2024-01-11T20:35:20.065Z,52.76
2024-01-11T20:37:48.454Z,52.81
2024-01-11T20:40:19.193Z,52.92
2024-01-11T20:42:47.376Z,52.65
2024-01-11T20:45:15.498Z,52.83
2024-01-11T20:47:43.697Z,52.88
2024-01-11T20:50:11.928Z,52.78
2024-01-11T20:52:40.040Z,52.75
2024-01-11T20:55:08.486Z,52.92
2024-01-11T20:57:39.374Z,52.88
2024-01-11T21:00:10.595Z,53.08
2024-01-11T21:02:39.965Z,53.01
2024-01-11T21:05:08.520Z,53.06
2024-01-11T21:07:39.347Z,52.89
2024-01-11T21:10:08.761Z,52.92
2024-01-11T21:12:38.752Z,53.12
2024-01-11T21:15:10.641Z,53.12
2024-01-11T21:17:39.406Z,53.19
2024-01-11T21:20:08.784Z,53.14
2024-01-11T21:22:37.296Z,53.17
2024-01-11T21:25:06.479Z,53.20
2024-01-11T21:27:36.046Z,53.16
2024-01-11T21:30:06.469Z,53.04
2024-01-11T21:32:34.927Z,53.05
2024-01-11T21:35:03.084Z,53.32
2024-01-11T21:37:32.447Z,53.44
2024-01-11T21:40:00.814Z,53.34
2024-01-11T21:42:30.962Z,53.27
2024-01-11T21:44:59.490Z,53.42
2024-01-11T21:47:29.291Z,53.67
2024-01-11T21:49:57.677Z,53.58
2024-01-11T21:52:26.253Z,53.47
2024-01-11T21:54:56.600Z,53.24
2024-01-11T21:57:25.008Z,53.43
2024-01-11T21:59:53.382Z,53.45
2024-01-11T22:02:24.454Z,53.57
2024-01-11T22:04:54.310Z,53.31
2024-01-11T22:07:22.635Z,53.54
2024-01-11T22:09:50.907Z,53.57
2024-01-11T22:12:20.390Z,53.52
2024-01-11T22:14:48.546Z,53.54
2024-01-11T22:17:17.612Z,53.62
2024-01-11T22:19:46.748Z,53.67
2024-01-11T22:22:16.830Z,53.46
2024-01-11T22:24:45.217Z,53.98
2024-01-11T22:27:22.597Z,53.71
2024-01-11T22:29:51.131Z,53.85
2024-01-11T22:32:19.606Z,53.95
2024-01-11T22:34:48.089Z,53.76
2024-01-11T22:37:18.862Z,53.70
2024-01-11T22:39:46.994Z,53.66
2024-01-11T22:42:15.129Z,53.70
2024-01-11T22:44:45.604Z,53.90
2024-01-11T22:47:13.945Z,53.85
2024-01-11T22:49:42.013Z,54.11
2024-01-11T22:52:10.246Z,54.06
2024-01-11T22:54:41.416Z,54.15
2024-01-11T22:57:10.314Z,54.23
2024-01-11T22:59:38.589Z,54.32
2024-01-11T23:02:07.041Z,54.25
2024-01-11T23:04:35.984Z,54.14
2024-01-11T23:07:04.436Z,54.29
2024-01-11T23:09:32.603Z,54.28
2024-01-11T23:12:03.437Z,54.19
2024-01-11T23:14:33.789Z,54.27
2024-01-11T23:17:03.800Z,54.22
2024-01-11T23:19:32.365Z,53.91
2024-01-11T23:22:00.852Z,54.22
2024-01-11T23:24:29.106Z,54.23
2024-01-11T23:26:57.575Z,54.25
2024-01-11T23:29:27.570Z,54.34
2024-01-11T23:31:55.852Z,54.41
2024-01-11T23:34:24.014Z,54.44
2024-01-11T23:36:52.204Z,54.33
2024-01-11T23:39:20.577Z,54.41
2024-01-11T23:41:49.034Z,54.33
2024-01-11T23:44:17.621Z,54.33
2024-01-11T23:46:48.494Z,54.46
2024-01-11T23:49:16.828Z,54.37
2024-01-11T23:51:45.307Z,53.87
2024-01-11T23:54:15.821Z,54.27
2024-01-11T23:56:44.172Z,54.18
2024-01-11T23:59:14.563Z,54.24
